Pella, IA

9:49 AM CDT on August 29, 2015 (GMT -0500)
Fountain Hills | | Change Station
CLOSE
Current Station
Personal Weather Station
Location: Pella, IA
Elevation: 830 ft
Nearby Weather Stations
Active Advisory: Flood Warning Active Notice: Record Report

Elev 830 ft 41.43 °N, 92.92 °W | Updated 5 seconds ago

Fog
Fog
66.4 °F
Feels Like 66.4 °F
N
3.0
Wind Variable Wind from NNW
Gusts 6.0 mph

Today
High -- | Low -- °F
--% Chance of Precip.
Yesterday
High -- | Low -- °F
Precip. -- in
6:34 AM 7:49 PM
Full, 100% visible
Pressure 30.01 in
Visibility 2.5 miles
Clouds Overcast 200 ft
Dew Point 64 °F
Humidity 91%
Rainfall 0.00 in
Snow Depth Not available.
UV 1 out of 12
Pollen 8.40 out of 12
Air Quality Not available.
Flu Activity Not available.
METAR KPEA 291435Z AUTO 34005KT 2 1/2SM BR OVC002 19/19 A3001 RMK AO2 T01880188
Pressure 30.01 in
Visibility 2.5 miles
Clouds Overcast 200 ft
Dew Point 64 °F
Humidity 91%
Rainfall 0.00 in
Snow Depth Not available.
UV 1 out of 12
Pollen 8.40 out of 12
Air Quality Not available.
Flu Activity Not available.
METAR KPEA 291435Z AUTO 34005KT 2 1/2SM BR OVC002 19/19 A3001 RMK AO2 T01880188

10-Day Weather Forecast

×

Almanac

Astronomy

Aug. 29, 2015 Rise Set
Actual Time
Civil Twilight
Nautical Twilight
Astronomical Twilight
Moon
Length of Visible Light
Length of Day
Tomorrow will be .
, % of the Moon is Illuminated

Today's Extremes

State Highs State Lows

Community

WunderPhotos

Upload Photos

1,850,707 photos uploaded!

WunderBlogs® & News

Nearby

Air Quality

  Air Quality AQ Index Pollutant
Not available.

Snow Depth

Station Depth Elevation

Earthquake Activity

City Distance Mag. Time & Date
Minimum magnitude displayed is 2.5.

Coastal Water Temperatures

Place Temperature

Stations

Nearby Weather Stations

Station Location Temp. Windchill Dew Point Humidity Wind Precip. Elev Updated Type
                   
Flood Warning
Statement as of 7:36 AM CDT on August 29, 2015

... Flood Warning in effect until Tuesday morning...

The National Weather Service in Des Moines has issued a
* Flood Warning for
the south Skunk River at Colfax... or from the Jasper-Polk County
line... to the Jasper-Marion County line.
* Until Tuesday morning.
* At 6:45 am Saturday the stage was 13.9 feet... or 4.1 feet below
flood stage.
* Flood stage is 18.0 feet.
* No flooding is occurring and minor flooding is forecast.
* Forecast... rise to flood stage early Monday morning. Continue
rising to 18.7 feet... or 0.7 feet above flood stage... Monday
evening. Go below flood stage Tuesday morning.



Lat... Lon 4142 9287 4168 9335 4174 9335 4170 9309
      4151 9287 4142 9287